Solana — WCY5602 — position and weather

sailwx.info

Track history (hours):
 
Tides and Currents Weather Stations Pressure Air Temp Water Temp Dewpoint Dewpoint Depression Visibility Wind Speed Wind Dir Waves Ship Positions

Solana

Owner: TAURUS MARINE, SAN FRANCISCO, CA. More information available from US FCC via Universal Licensing System and Coast Guard Vessel Documentation Center.

Last reported at 2016-Apr-28 19:33 UTC. Time now 2016-Apr-28 19:54 UTC.
Position N 47°39' W 122°20'.

Length 21 m; draft 3 m.

Type: Tug. MMSI: 366969740.

Date/timePositionNaut miles runAvg speedWind from/ knotsBaromVisibWave heightAir tempDewpointWater temp
2016-Apr-28 19:33N 47°39' W 122°20'0 0.0
2016-Apr-28 18:33N 47°39' W 122°20'0 0.0
2016-Apr-28 17:33N 47°39' W 122°20'3 3.4
2016-Apr-28 16:33N 47°41' W 122°25'5 5.3
2016-Apr-28 15:33N 47°36' W 122°22'1 0.5
2016-Apr-28 14:33N 47°35' W 122°21'1 1.1
2016-Apr-28 13:33N 47°34' W 122°21'  
2016-Apr-24 16:16N 47°34' W 122°21'1 1.6
2016-Apr-24 15:33N 47°35' W 122°21'1 0.5
2016-Apr-24 14:34N 47°35' W 122°22'1 0.9
2016-Apr-24 13:33N 47°34' W 122°21'0 0.0
2016-Apr-23 17:34N 47°34' W 122°21'7 6.9
2016-Apr-23 16:33N 47°41' W 122°25'1 1.4
2016-Apr-23 15:34N 47°40' W 122°23'4 3.9
2016-Apr-23 14:33N 47°39' W 122°18'0 0.5
2016-Apr-23 13:33N 47°39' W 122°17'4 4.4
2016-Apr-23 12:34N 47°40' W 122°23'2 2.3
2016-Apr-23 11:34N 47°39' W 122°27'7 6.7
2016-Apr-23 10:33N 47°34' W 122°21'0 0.2
2016-Apr-23 09:33N 47°34' W 122°21'0 0.0
2016-Apr-23 04:28N 47°34' W 122°21'6 6.4
2016-Apr-23 03:34N 47°39' W 122°26'3 3.4
2016-Apr-23 02:33N 47°39' W 122°21'2 2.2
2016-Apr-23 01:33N 47°39' W 122°17'4 4.1
2016-Apr-23 00:33N 47°40' W 122°23'0 0.1
2016-Apr-22 23:33N 47°40' W 122°24'0 0.3
2016-Apr-22 22:34N 47°40' W 122°24'4 3.9
2016-Apr-22 21:34N 47°36' W 122°23'4 3.6
2016-Apr-22 20:34N 47°33' W 122°20'5 5.3
2016-Apr-22 19:34N 47°37' W 122°24'2 2.5
2016-Apr-22 18:34N 47°40' W 122°24'5 4.4
2016-Apr-22 17:26N 47°39' W 122°17'2 2.8
2016-Apr-22 16:33N 47°39' W 122°20'4 3.8
2016-Apr-22 15:34N 47°41' W 122°25'0 0.1
2016-Apr-22 14:34N 47°41' W 122°25'0 0.0
2016-Apr-22 13:33N 47°41' W 122°25'5 4.5
2016-Apr-22 12:33N 47°37' W 122°23'7 6.6
2016-Apr-22 11:33N 47°31' W 122°18'2 1.5
2016-Apr-22 10:33N 47°32' W 122°20'1 0.9
2016-Apr-22 09:33N 47°32' W 122°19'3 0.1
2016-Apr-21 03:18N 47°34' W 122°21'3 4.0
2016-Apr-21 02:33N 47°37' W 122°23'3 3.3
2016-Apr-21 01:33N 47°40' W 122°24'3 2.6
2016-Apr-21 00:33N 47°39' W 122°20'2 1.7
2016-Apr-20 23:33N 47°39' W 122°18'1 1.0
2016-Apr-20 22:33N 47°39' W 122°19'1 1.5
2016-Apr-20 21:33N 47°39' W 122°21'3 3.5
2016-Apr-20 20:33N 47°39' W 122°27'5 5.4
2016-Apr-20 19:33N 47°35' W 122°21'1 0.8
2016-Apr-20 18:33N 47°36' W 122°22'0 0.0
2016-Apr-20 17:33N 47°36' W 122°22'0 0.1
2016-Apr-20 16:33N 47°36' W 122°22'0 0.2
2016-Apr-20 15:33N 47°36' W 122°22'1 0.0
2016-Apr-19 00:33N 47°34' W 122°21'6 6.0
2016-Apr-18 23:33N 47°40' W 122°24'5 4.3
2016-Apr-18 22:25N 47°39' W 122°17'2 2.6
2016-Apr-18 21:33N 47°39' W 122°21'4 4.1
2016-Apr-18 20:33N 47°40' W 122°26'8 8.1
2016-Apr-18 19:33N 47°33' W 122°20'  
Track history (hours):
 
Tides and Currents Weather Stations Pressure Air Temp Water Temp Dewpoint Dewpoint Depression Visibility Wind Speed Wind Dir Waves Ship Positions

Solana

Owner: TAURUS MARINE, SAN FRANCISCO, CA. More information available from US FCC via Universal Licensing System and Coast Guard Vessel Documentation Center.

Last reported at 2016-Apr-28 19:33 UTC. Time now 2016-Apr-28 19:54 UTC.
Position N 47°39' W 122°20'.

Length 21 m; draft 3 m.

Type: Tug. MMSI: 366969740.

Date/timePositionNaut miles runAvg speedWind from/ knotsBaromVisibWave heightAir tempDewpointWater temp
2016-Apr-28 19:33N 47°39' W 122°20'0 0.0
2016-Apr-28 18:33N 47°39' W 122°20'0 0.0
2016-Apr-28 17:33N 47°39' W 122°20'3 3.4
2016-Apr-28 16:33N 47°41' W 122°25'5 5.3
2016-Apr-28 15:33N 47°36' W 122°22'1 0.5
2016-Apr-28 14:33N 47°35' W 122°21'1 1.1
2016-Apr-28 13:33N 47°34' W 122°21'  
2016-Apr-24 16:16N 47°34' W 122°21'1 1.6
2016-Apr-24 15:33N 47°35' W 122°21'1 0.5
2016-Apr-24 14:34N 47°35' W 122°22'1 0.9
2016-Apr-24 13:33N 47°34' W 122°21'0 0.0
2016-Apr-23 17:34N 47°34' W 122°21'7 6.9
2016-Apr-23 16:33N 47°41' W 122°25'1 1.4
2016-Apr-23 15:34N 47°40' W 122°23'4 3.9
2016-Apr-23 14:33N 47°39' W 122°18'0 0.5
2016-Apr-23 13:33N 47°39' W 122°17'4 4.4
2016-Apr-23 12:34N 47°40' W 122°23'2 2.3
2016-Apr-23 11:34N 47°39' W 122°27'7 6.7
2016-Apr-23 10:33N 47°34' W 122°21'0 0.2
2016-Apr-23 09:33N 47°34' W 122°21'0 0.0
2016-Apr-23 04:28N 47°34' W 122°21'6 6.4
2016-Apr-23 03:34N 47°39' W 122°26'3 3.4
2016-Apr-23 02:33N 47°39' W 122°21'2 2.2
2016-Apr-23 01:33N 47°39' W 122°17'4 4.1
2016-Apr-23 00:33N 47°40' W 122°23'0 0.1
2016-Apr-22 23:33N 47°40' W 122°24'0 0.3
2016-Apr-22 22:34N 47°40' W 122°24'4 3.9
2016-Apr-22 21:34N 47°36' W 122°23'4 3.6
2016-Apr-22 20:34N 47°33' W 122°20'5 5.3
2016-Apr-22 19:34N 47°37' W 122°24'2 2.5
2016-Apr-22 18:34N 47°40' W 122°24'5 4.4
2016-Apr-22 17:26N 47°39' W 122°17'2 2.8
2016-Apr-22 16:33N 47°39' W 122°20'4 3.8
2016-Apr-22 15:34N 47°41' W 122°25'0 0.1
2016-Apr-22 14:34N 47°41' W 122°25'0 0.0
2016-Apr-22 13:33N 47°41' W 122°25'5 4.5
2016-Apr-22 12:33N 47°37' W 122°23'7 6.6
2016-Apr-22 11:33N 47°31' W 122°18'2 1.5
2016-Apr-22 10:33N 47°32' W 122°20'1 0.9
2016-Apr-22 09:33N 47°32' W 122°19'3 0.1
2016-Apr-21 03:18N 47°34' W 122°21'3 4.0
2016-Apr-21 02:33N 47°37' W 122°23'3 3.3
2016-Apr-21 01:33N 47°40' W 122°24'3 2.6
2016-Apr-21 00:33N 47°39' W 122°20'2 1.7
2016-Apr-20 23:33N 47°39' W 122°18'1 1.0
2016-Apr-20 22:33N 47°39' W 122°19'1 1.5
2016-Apr-20 21:33N 47°39' W 122°21'3 3.5
2016-Apr-20 20:33N 47°39' W 122°27'5 5.4
2016-Apr-20 19:33N 47°35' W 122°21'1 0.8
2016-Apr-20 18:33N 47°36' W 122°22'0 0.0
2016-Apr-20 17:33N 47°36' W 122°22'0 0.1
2016-Apr-20 16:33N 47°36' W 122°22'0 0.2
2016-Apr-20 15:33N 47°36' W 122°22'1 0.0
2016-Apr-19 00:33N 47°34' W 122°21'6 6.0
2016-Apr-18 23:33N 47°40' W 122°24'5 4.3
2016-Apr-18 22:25N 47°39' W 122°17'2 2.6
2016-Apr-18 21:33N 47°39' W 122°21'4 4.1
2016-Apr-18 20:33N 47°40' W 122°26'8 8.1
2016-Apr-18 19:33N 47°33' W 122°20'  

Dump ship's entire track history